Time;durP1;ratioP1;P1;durP2;ratioP2;P2;SDS_P1;SDS_P2;PMS_P1;PMS_P2;Temp;Humidity;BMP_temperature;BMP_pressure;BME280_temperature;BME280_humidity;BME280_pressure;Samples;Min_cycle;Max_cycle;Signal;HPM_P1;HPM_P2
2022/10/25 00:00:00;;;;;;;;;;;11.20;99.90;;;;;;4976343;28;19980;-74
2022/10/25 00:02:37;;;;;;;;;;;11.10;99.90;;;;;;5021698;28;19929;-73
2022/10/25 00:05:13;;;;;;;;;;;11.10;99.90;;;;;;5023917;28;19980;-77
2022/10/25 00:07:44;;;;;;;;;;;11.10;99.90;;;;;;4974890;28;19931;-75
2022/10/25 00:10:16;;;;;;;;;;;11.10;99.90;;;;;;5010168;28;19962;-77
2022/10/25 00:12:48;;;;;;;;;;;11.00;99.90;;;;;;4991558;28;19926;-75
2022/10/25 00:15:15;;;;;;;;;;;11.10;99.90;;;;;;5027135;28;19937;-75
2022/10/25 00:17:42;;;;;;;;;;;11.10;99.90;;;;;;4991460;28;19925;-75
2022/10/25 00:20:14;;;;;;;;;;;11.10;99.90;;;;;;5003334;28;19930;-74
2022/10/25 00:22:45;;;;;;;;;;;11.10;99.90;;;;;;5009301;28;19934;-75
2022/10/25 00:25:17;;;;;;;;;;;11.20;99.90;;;;;;5026414;28;20446;-75
2022/10/25 00:27:44;;;;;;;;;;;11.20;99.90;;;;;;5001147;28;19929;-77
2022/10/25 00:30:15;;;;;;;;;;;11.30;99.90;;;;;;5009944;28;19933;-74
2022/10/25 00:32:51;;;;;;;;;;;11.20;99.90;;;;;;5025837;28;19965;-74
2022/10/25 00:35:23;;;;;;;;;;;11.20;99.90;;;;;;5026800;28;19933;-75
2022/10/25 00:37:54;;;;;;;;;;;11.30;99.90;;;;;;5007481;28;19946;-77
2022/10/25 00:40:26;;;;;;;;;;;11.30;99.90;;;;;;5010016;28;19984;-76
2022/10/25 00:42:57;;;;;;;;;;;11.30;99.90;;;;;;5008727;28;19932;-76
2022/10/25 00:45:29;;;;;;;;;;;11.30;99.90;;;;;;4977677;28;19930;-75
2022/10/25 00:48:03;;;;;;;;;;;11.30;99.90;;;;;;4993730;28;19961;-76
2022/10/25 00:50:37;;;;;;;;;;;11.30;99.90;;;;;;5007156;28;20408;-78
2022/10/25 00:53:13;;;;;;;;;;;11.20;99.90;;;;;;5007482;28;19925;-75
2022/10/25 00:55:47;;;;;;;;;;;11.20;99.90;;;;;;5011078;28;19996;-73
2022/10/25 00:58:16;;;;;;;;;;;11.20;99.90;;;;;;4991856;28;19926;-75
2022/10/25 01:00:49;;;;;;;;;;;11.20;99.90;;;;;;5007489;28;19925;-76
2022/10/25 01:03:21;;;;;;;;;;;11.20;99.90;;;;;;4992711;28;20371;-76
2022/10/25 01:05:53;;;;;;;;;;;11.20;99.90;;;;;;5007815;28;20335;-75
2022/10/25 01:08:25;;;;;;;;;;;11.20;99.90;;;;;;4992327;28;19979;-77
2022/10/25 01:10:52;;;;;;;;;;;11.10;99.90;;;;;;5008731;28;19929;-73
2022/10/25 01:13:23;;;;;;;;;;;11.10;99.90;;;;;;5010010;28;19980;-75
2022/10/25 01:15:59;;;;;;;;;;;11.10;99.90;;;;;;4992962;28;19930;-75
2022/10/25 01:18:42;;;;;;;;;;;11.00;99.90;;;;;;4992148;28;19925;-75
2022/10/25 01:21:28;;;;;;;;;;;11.00;99.90;;;;;;5022352;28;19925;-75
2022/10/25 01:24:19;;;;;;;;;;;11.00;99.90;;;;;;5005370;28;19929;-76
2022/10/25 01:26:59;;;;;;;;;;;11.00;99.90;;;;;;5009147;28;19995;-74
2022/10/25 01:29:57;;;;;;;;;;;10.90;99.90;;;;;;5002157;28;20419;-75
2022/10/25 01:32:29;;;;;;;;;;;10.90;99.90;;;;;;4988754;28;20350;-75
2022/10/25 01:35:00;;;;;;;;;;;10.90;99.90;;;;;;5009775;28;19926;-76
2022/10/25 01:37:40;;;;;;;;;;;10.90;99.90;;;;;;4963185;28;19930;-75
2022/10/25 01:40:23;;;;;;;;;;;10.80;99.90;;;;;;5022467;28;19926;-75
2022/10/25 01:43:08;;;;;;;;;;;10.80;99.90;;;;;;5008716;28;19925;-75
2022/10/25 01:45:43;;;;;;;;;;;10.80;99.90;;;;;;5022856;28;19984;-76
2022/10/25 01:48:18;;;;;;;;;;;10.80;99.90;;;;;;4996049;28;20611;-75
2022/10/25 01:50:49;;;;;;;;;;;10.80;99.90;;;;;;4990505;28;19933;-73
2022/10/25 01:53:21;;;;;;;;;;;10.80;99.90;;;;;;4991074;28;19929;-74
2022/10/25 01:55:58;;;;;;;;;;;10.80;99.90;;;;;;4989362;28;19980;-76
2022/10/25 01:58:50;;;;;;;;;;;10.80;99.90;;;;;;4975895;28;19925;-72
2022/10/25 02:01:33;;;;;;;;;;;10.70;99.90;;;;;;5007933;28;19984;-74
2022/10/25 02:04:19;;;;;;;;;;;10.70;99.90;;;;;;5003246;28;19925;-75
2022/10/25 02:07:09;;;;;;;;;;;10.70;99.90;;;;;;5008814;28;20056;-76
2022/10/25 02:09:44;;;;;;;;;;;10.70;99.90;;;;;;4994639;28;19965;-74
2022/10/25 02:12:20;;;;;;;;;;;10.70;99.90;;;;;;4995544;28;19930;-76
2022/10/25 02:15:07;;;;;;;;;;;10.60;99.90;;;;;;5008082;28;20400;-75
2022/10/25 02:17:44;;;;;;;;;;;10.60;99.90;;;;;;5008023;28;19936;-74
2022/10/25 02:20:17;;;;;;;;;;;10.60;99.90;;;;;;4994840;28;19929;-75
2022/10/25 02:22:50;;;;;;;;;;;10.60;99.90;;;;;;4985382;28;19992;-75
2022/10/25 02:25:21;;;;;;;;;;;10.50;99.90;;;;;;5010827;28;19960;-75
2022/10/25 02:27:54;;;;;;;;;;;10.40;99.90;;;;;;5012410;28;19929;-76
2022/10/25 02:30:26;;;;;;;;;;;10.40;99.90;;;;;;5010026;28;20400;-72
2022/10/25 02:32:57;;;;;;;;;;;10.40;99.90;;;;;;4988488;28;20200;-73
2022/10/25 02:35:29;;;;;;;;;;;10.30;99.90;;;;;;4974022;28;19929;-74
2022/10/25 02:38:01;;;;;;;;;;;10.30;99.90;;;;;;5012365;28;19976;-76
2022/10/25 02:40:33;;;;;;;;;;;10.30;99.90;;;;;;5008775;28;19926;-75
2022/10/25 02:42:59;;;;;;;;;;;10.30;99.90;;;;;;4994159;28;19925;-77
2022/10/25 02:45:31;;;;;;;;;;;10.20;99.90;;;;;;4984705;28;19985;-73
2022/10/25 02:48:03;;;;;;;;;;;10.10;99.90;;;;;;5012112;28;19932;-76
2022/10/25 02:50:34;;;;;;;;;;;10.10;99.90;;;;;;5001221;28;19988;-75
2022/10/25 02:53:06;;;;;;;;;;;10.10;99.90;;;;;;4989777;28;20055;-74
2022/10/25 02:55:37;;;;;;;;;;;10.10;99.90;;;;;;4999549;28;19930;-74
2022/10/25 02:58:09;;;;;;;;;;;10.10;99.90;;;;;;5010996;28;19980;-73
2022/10/25 03:00:40;;;;;;;;;;;10.10;99.90;;;;;;5001208;28;20455;-75
2022/10/25 03:03:12;;;;;;;;;;;10.10;99.90;;;;;;5012680;28;19926;-77
2022/10/25 03:05:44;;;;;;;;;;;10.20;99.90;;;;;;4982498;28;19926;-76
2022/10/25 03:08:15;;;;;;;;;;;10.30;99.90;;;;;;5010146;28;19929;-76
2022/10/25 03:10:47;;;;;;;;;;;10.40;99.90;;;;;;5005742;28;19934;-73
2022/10/25 03:13:19;;;;;;;;;;;10.60;99.90;;;;;;4990093;28;19926;-74
2022/10/25 03:15:50;;;;;;;;;;;10.60;99.90;;;;;;5012203;28;19930;-76
2022/10/25 03:18:22;;;;;;;;;;;10.70;99.90;;;;;;5006400;28;19972;-74
2022/10/25 03:20:58;;;;;;;;;;;10.70;99.90;;;;;;5011277;28;20388;-74
2022/10/25 03:23:30;;;;;;;;;;;10.60;99.90;;;;;;5013304;28;20364;-73
2022/10/25 03:26:01;;;;;;;;;;;10.70;99.90;;;;;;5012472;28;20782;-73
2022/10/25 03:28:33;;;;;;;;;;;10.60;99.90;;;;;;5012587;28;19948;-73
2022/10/25 03:31:09;;;;;;;;;;;10.60;99.90;;;;;;5013267;28;19956;-73
2022/10/25 03:33:40;;;;;;;;;;;10.60;99.90;;;;;;5010630;28;19960;-74
2022/10/25 03:36:13;;;;;;;;;;;10.50;99.90;;;;;;5012035;28;19980;-74
2022/10/25 03:38:44;;;;;;;;;;;10.50;99.90;;;;;;5027192;28;19925;-73
2022/10/25 03:41:16;;;;;;;;;;;10.50;99.90;;;;;;5010864;28;20073;-73
2022/10/25 03:43:47;;;;;;;;;;;10.40;99.90;;;;;;5011982;28;20525;-73
2022/10/25 03:46:19;;;;;;;;;;;10.40;99.90;;;;;;5012292;28;20401;-74
2022/10/25 03:48:51;;;;;;;;;;;10.30;99.90;;;;;;5007908;28;19995;-77
2022/10/25 03:51:22;;;;;;;;;;;10.30;99.90;;;;;;5012694;28;19925;-73
2022/10/25 03:53:54;;;;;;;;;;;10.30;99.90;;;;;;4995918;28;19925;-73
2022/10/25 03:56:25;;;;;;;;;;;10.30;99.90;;;;;;5022193;28;19932;-74
2022/10/25 03:58:57;;;;;;;;;;;10.30;99.90;;;;;;4991682;28;19941;-74
2022/10/25 04:01:28;;;;;;;;;;;10.30;99.90;;;;;;5012515;28;19929;-74
2022/10/25 04:04:00;;;;;;;;;;;10.30;99.90;;;;;;4998318;28;19929;-74
2022/10/25 04:06:31;;;;;;;;;;;10.20;99.90;;;;;;4994175;28;20598;-73
2022/10/25 04:09:03;;;;;;;;;;;10.20;99.90;;;;;;5011059;28;19929;-73
2022/10/25 04:11:34;;;;;;;;;;;10.20;99.90;;;;;;5012322;28;19926;-73
2022/10/25 04:14:06;;;;;;;;;;;10.20;99.90;;;;;;5026937;28;20363;-76
2022/10/25 04:16:37;;;;;;;;;;;10.20;99.90;;;;;;5008719;28;20351;-74
2022/10/25 04:19:09;;;;;;;;;;;10.20;99.90;;;;;;4994304;28;19965;-76
2022/10/25 04:21:41;;;;;;;;;;;10.20;99.90;;;;;;5009573;28;20454;-76
2022/10/25 04:24:12;;;;;;;;;;;10.20;99.90;;;;;;4992152;28;19925;-74
2022/10/25 04:26:44;;;;;;;;;;;10.20;99.90;;;;;;5004939;28;19926;-74
2022/10/25 04:29:10;;;;;;;;;;;10.20;99.90;;;;;;5012414;28;19925;-73
2022/10/25 04:31:42;;;;;;;;;;;10.20;99.90;;;;;;5008687;28;20738;-73
2022/10/25 04:34:13;;;;;;;;;;;10.30;99.90;;;;;;4994771;28;19926;-73
2022/10/25 04:36:45;;;;;;;;;;;10.30;99.90;;;;;;5011731;28;19925;-73
2022/10/25 04:39:17;;;;;;;;;;;10.30;99.90;;;;;;5010940;28;19933;-74
2022/10/25 04:41:48;;;;;;;;;;;10.30;99.90;;;;;;5009377;28;19980;-75
2022/10/25 04:44:20;;;;;;;;;;;10.30;99.90;;;;;;5012092;28;19982;-74
2022/10/25 04:46:51;;;;;;;;;;;10.40;99.90;;;;;;5003561;28;19976;-75
2022/10/25 04:49:23;;;;;;;;;;;10.40;99.90;;;;;;4984589;28;19932;-73
2022/10/25 04:51:55;;;;;;;;;;;10.50;99.90;;;;;;5013352;28;19926;-75
2022/10/25 04:54:26;;;;;;;;;;;10.50;99.90;;;;;;5010587;28;19933;-76
2022/10/25 04:56:58;;;;;;;;;;;10.50;99.90;;;;;;5024150;28;20533;-74
2022/10/25 04:59:29;;;;;;;;;;;10.60;99.90;;;;;;5006544;28;19926;-74
2022/10/25 05:02:01;;;;;;;;;;;10.60;99.90;;;;;;5018756;28;20331;-74
2022/10/25 05:04:32;;;;;;;;;;;10.60;99.90;;;;;;4992569;28;19926;-73
2022/10/25 05:07:04;;;;;;;;;;;10.60;99.90;;;;;;5006371;28;19980;-74
2022/10/25 05:09:36;;;;;;;;;;;10.70;99.90;;;;;;5008551;28;19925;-74
2022/10/25 05:12:07;;;;;;;;;;;10.70;99.90;;;;;;5021452;28;19929;-73
2022/10/25 05:14:39;;;;;;;;;;;10.70;99.90;;;;;;5010460;28;19979;-73
2022/10/25 05:17:10;;;;;;;;;;;10.70;99.90;;;;;;5009488;28;20003;-76
2022/10/25 05:19:42;;;;;;;;;;;10.80;99.90;;;;;;5009443;28;20447;-74
2022/10/25 05:22:13;;;;;;;;;;;10.80;99.90;;;;;;5009820;28;19929;-73
2022/10/25 05:24:45;;;;;;;;;;;10.80;99.90;;;;;;5009877;28;19925;-73
2022/10/25 05:27:17;;;;;;;;;;;10.80;99.90;;;;;;4992586;28;19929;-72
2022/10/25 05:29:49;;;;;;;;;;;10.90;99.90;;;;;;5024956;28;19980;-75
2022/10/25 05:32:20;;;;;;;;;;;10.90;99.90;;;;;;5011530;28;19932;-73
2022/10/25 05:34:52;;;;;;;;;;;10.80;99.90;;;;;;5024043;28;19925;-73
2022/10/25 05:37:23;;;;;;;;;;;10.80;99.90;;;;;;5025116;28;19925;-74
2022/10/25 05:39:55;;;;;;;;;;;10.80;99.90;;;;;;4990794;28;19925;-74
2022/10/25 05:42:26;;;;;;;;;;;10.80;99.90;;;;;;5011299;28;19930;-74
2022/10/25 05:44:58;;;;;;;;;;;10.80;99.90;;;;;;5005619;28;19979;-73
2022/10/25 05:47:29;;;;;;;;;;;10.80;99.90;;;;;;5010677;28;19933;-74
2022/10/25 05:50:01;;;;;;;;;;;10.80;99.90;;;;;;4989794;28;19933;-74
2022/10/25 05:52:33;;;;;;;;;;;10.90;99.90;;;;;;5020799;28;20528;-75
2022/10/25 05:55:04;;;;;;;;;;;10.80;99.90;;;;;;5003610;28;19947;-72
2022/10/25 05:57:36;;;;;;;;;;;10.80;99.90;;;;;;5016154;28;19929;-72
2022/10/25 06:00:08;;;;;;;;;;;10.60;99.90;;;;;;5024680;28;20009;-74
2022/10/25 06:02:39;;;;;;;;;;;10.60;99.90;;;;;;5011050;28;19929;-75
2022/10/25 06:05:11;;;;;;;;;;;10.50;99.90;;;;;;5010845;28;19933;-72
2022/10/25 06:07:42;;;;;;;;;;;10.50;99.90;;;;;;5010234;28;19980;-74
2022/10/25 06:10:14;;;;;;;;;;;10.50;99.90;;;;;;4995602;28;19925;-73
2022/10/25 06:12:45;;;;;;;;;;;10.60;99.90;;;;;;5010885;28;19925;-72
2022/10/25 06:15:12;;;;;;;;;;;10.60;99.90;;;;;;4990356;28;19927;-75
2022/10/25 06:17:39;;;;;;;;;;;10.70;99.90;;;;;;4991233;28;19925;-73
2022/10/25 06:20:10;;;;;;;;;;;10.80;99.90;;;;;;4992208;28;19975;-74
2022/10/25 06:22:42;;;;;;;;;;;10.80;99.90;;;;;;5007104;28;19947;-74
2022/10/25 06:25:14;;;;;;;;;;;10.80;99.90;;;;;;5022107;28;19976;-73
2022/10/25 06:27:45;;;;;;;;;;;10.80;99.90;;;;;;5022350;28;19930;-73
2022/10/25 06:30:17;;;;;;;;;;;10.90;99.90;;;;;;5020091;28;19933;-72
2022/10/25 06:32:48;;;;;;;;;;;10.90;99.90;;;;;;4987620;28;20344;-75
2022/10/25 06:35:20;;;;;;;;;;;11.00;99.90;;;;;;5009976;28;20331;-72
2022/10/25 06:37:52;;;;;;;;;;;10.90;99.90;;;;;;5009244;28;20593;-74
2022/10/25 06:40:23;;;;;;;;;;;11.00;99.90;;;;;;5007001;28;20313;-75
2022/10/25 06:42:54;;;;;;;;;;;10.90;99.90;;;;;;5025007;28;19981;-74
2022/10/25 06:45:21;;;;;;;;;;;10.90;99.90;;;;;;4989573;28;19929;-75
2022/10/25 06:47:53;;;;;;;;;;;11.00;99.90;;;;;;5010606;28;19933;-73
2022/10/25 06:50:24;;;;;;;;;;;11.00;99.90;;;;;;5005273;28;19929;-74
2022/10/25 06:52:56;;;;;;;;;;;11.00;99.90;;;;;;4990046;28;19925;-75
2022/10/25 06:55:28;;;;;;;;;;;11.00;99.90;;;;;;4994736;28;19926;-74
2022/10/25 06:57:59;;;;;;;;;;;11.00;99.90;;;;;;4994019;28;19925;-75
2022/10/25 07:00:31;;;;;;;;;;;11.00;99.90;;;;;;4999739;28;19926;-74
2022/10/25 07:03:02;;;;;;;;;;;11.10;99.90;;;;;;5022521;28;20007;-75
2022/10/25 07:05:34;;;;;;;;;;;11.20;99.90;;;;;;5022096;28;19925;-75
2022/10/25 07:08:00;;;;;;;;;;;11.40;99.90;;;;;;5011155;28;20565;-76
2022/10/25 07:10:27;;;;;;;;;;;11.50;99.90;;;;;;5012759;28;19992;-73
2022/10/25 07:12:58;;;;;;;;;;;11.60;99.90;;;;;;4995490;28;19925;-74
2022/10/25 07:15:30;;;;;;;;;;;11.80;99.90;;;;;;5026811;28;20339;-72
2022/10/25 07:18:02;;;;;;;;;;;11.80;99.90;;;;;;5012176;28;19933;-74
2022/10/25 07:20:33;;;;;;;;;;;11.90;99.90;;;;;;5000418;28;20324;-76
2022/10/25 07:23:05;;;;;;;;;;;11.90;99.90;;;;;;5011137;28;20388;-74
2022/10/25 07:25:36;;;;;;;;;;;12.00;99.90;;;;;;5011841;28;19996;-72
2022/10/25 07:28:08;;;;;;;;;;;12.00;99.90;;;;;;5025614;28;19980;-77
2022/10/25 07:30:46;;;;;;;;;;;12.00;99.90;;;;;;5003531;28;19926;-72
2022/10/25 07:33:13;;;;;;;;;;;12.10;99.90;;;;;;4977806;28;20402;-73
2022/10/25 07:35:45;;;;;;;;;;;12.00;99.90;;;;;;4995037;28;19925;-74
2022/10/25 07:38:17;;;;;;;;;;;12.00;99.90;;;;;;4992446;28;19930;-73
2022/10/25 07:40:54;;;;;;;;;;;12.10;99.90;;;;;;4982341;28;19930;-75
2022/10/25 07:43:25;;;;;;;;;;;12.10;99.90;;;;;;5024805;28;19925;-74
2022/10/25 07:45:57;;;;;;;;;;;12.10;99.90;;;;;;4986997;28;19930;-75
2022/10/25 07:48:29;;;;;;;;;;;12.10;99.90;;;;;;4994034;28;19933;-75
2022/10/25 07:51:01;;;;;;;;;;;12.10;99.90;;;;;;4986183;28;19937;-74
2022/10/25 07:53:33;;;;;;;;;;;12.20;99.90;;;;;;4987305;28;19937;-72
2022/10/25 07:56:05;;;;;;;;;;;12.20;99.90;;;;;;5008272;28;20692;-75
2022/10/25 07:58:36;;;;;;;;;;;12.30;99.90;;;;;;5024392;28;19932;-71
2022/10/25 08:01:09;;;;;;;;;;;12.40;99.90;;;;;;5011397;28;19933;-76
2022/10/25 08:03:40;;;;;;;;;;;12.40;99.90;;;;;;4990341;28;19926;-75
2022/10/25 08:06:12;;;;;;;;;;;12.50;99.90;;;;;;5001323;28;19925;-75
2022/10/25 08:08:44;;;;;;;;;;;12.60;99.90;;;;;;4993190;28;19964;-71
2022/10/25 08:11:15;;;;;;;;;;;12.60;99.90;;;;;;5024667;28;19930;-72
2022/10/25 08:13:48;;;;;;;;;;;12.70;99.90;;;;;;4992697;28;19979;-76
2022/10/25 08:16:20;;;;;;;;;;;12.80;99.90;;;;;;5010607;28;19999;-76
2022/10/25 08:18:46;;;;;;;;;;;12.90;99.90;;;;;;4993371;28;20504;-74
2022/10/25 08:21:18;;;;;;;;;;;13.00;99.90;;;;;;4994229;28;19980;-75
2022/10/25 08:23:50;;;;;;;;;;;13.10;99.90;;;;;;5000855;28;19929;-75
2022/10/25 08:26:25;;;;;;;;;;;13.20;99.90;;;;;;5007940;28;19929;-71
2022/10/25 08:28:56;;;;;;;;;;;13.30;99.90;;;;;;4993199;28;19951;-76
2022/10/25 08:31:28;;;;;;;;;;;13.30;99.90;;;;;;5011586;28;19984;-77
2022/10/25 08:33:59;;;;;;;;;;;13.40;99.90;;;;;;5009991;28;19934;-75
2022/10/25 08:36:31;;;;;;;;;;;13.50;99.90;;;;;;4993119;28;19980;-75
2022/10/25 08:39:03;;;;;;;;;;;13.50;99.90;;;;;;5025197;28;20428;-73
2022/10/25 08:41:43;;;;;;;;;;;13.60;99.90;;;;;;5027409;28;20356;-73
2022/10/25 08:44:24;;;;;;;;;;;13.60;99.90;;;;;;5012291;28;19930;-73
2022/10/25 08:46:58;;;;;;;;;;;13.70;99.90;;;;;;5011067;28;19981;-73
2022/10/25 08:49:33;;;;;;;;;;;13.80;99.90;;;;;;5012732;28;19983;-73
2022/10/25 08:52:05;;;;;;;;;;;13.80;99.90;;;;;;5014063;28;19925;-75
2022/10/25 08:54:34;;;;;;;;;;;13.90;99.90;;;;;;5008944;28;19984;-72
2022/10/25 08:57:06;;;;;;;;;;;14.00;99.90;;;;;;5013814;28;19975;-74
2022/10/25 08:59:39;;;;;;;;;;;14.00;99.90;;;;;;5009145;28;20431;-74
2022/10/25 09:02:32;;;;;;;;;;;14.10;99.90;;;;;;5012017;28;19980;-73
2022/10/25 09:05:11;;;;;;;;;;;14.10;99.90;;;;;;4999739;28;20409;-75
2022/10/25 09:07:54;;;;;;;;;;;14.20;99.90;;;;;;4994365;28;19988;-74
2022/10/25 09:10:50;;;;;;;;;;;14.30;99.90;;;;;;4990452;28;19972;-74
2022/10/25 09:13:25;;;;;;;;;;;14.40;99.90;;;;;;5021852;28;19930;-72
2022/10/25 09:16:16;;;;;;;;;;;14.40;99.90;;;;;;5010302;28;19969;-74
2022/10/25 09:18:52;;;;;;;;;;;14.50;99.90;;;;;;5008510;28;19984;-74
2022/10/25 09:21:27;;;;;;;;;;;14.60;99.90;;;;;;5008644;28;19980;-73
2022/10/25 09:24:20;;;;;;;;;;;14.70;99.90;;;;;;5006331;28;19966;-71
2022/10/25 09:27:03;;;;;;;;;;;14.80;99.90;;;;;;5007509;28;19932;-73
2022/10/25 09:29:37;;;;;;;;;;;14.90;99.90;;;;;;5010461;28;20351;-72
2022/10/25 09:32:34;;;;;;;;;;;15.00;99.90;;;;;;5007414;28;19937;-75
2022/10/25 09:35:12;;;;;;;;;;;15.00;99.90;;;;;;4972029;28;19929;-73
2022/10/25 09:37:48;;;;;;;;;;;15.00;99.90;;;;;;5020691;28;19988;-74
2022/10/25 09:40:24;;;;;;;;;;;15.10;99.90;;;;;;5009512;28;19930;-74
2022/10/25 09:42:58;;;;;;;;;;;15.10;99.90;;;;;;4994148;28;19932;-74
2022/10/25 09:45:43;;;;;;;;;;;15.10;99.90;;;;;;5009866;28;19925;-75
2022/10/25 09:48:16;;;;;;;;;;;15.20;99.90;;;;;;5008655;28;19933;-74
2022/10/25 09:51:05;;;;;;;;;;;15.20;99.90;;;;;;5023667;28;19933;-72
2022/10/25 09:53:39;;;;;;;;;;;15.30;99.90;;;;;;5007575;28;19991;-75
2022/10/25 09:56:11;;;;;;;;;;;15.40;99.90;;;;;;4999804;28;19933;-74
2022/10/25 09:58:46;;;;;;;;;;;15.40;99.90;;;;;;5007997;28;19957;-75
2022/10/25 10:01:27;;;;;;;;;;;15.40;99.90;;;;;;4988889;28;20502;-75
2022/10/25 10:04:10;;;;;;;;;;;15.40;99.90;;;;;;5005492;28;19984;-75
2022/10/25 10:06:37;;;;;;;;;;;15.40;99.90;;;;;;5022628;28;19953;-76
2022/10/25 10:09:11;;;;;;;;;;;15.40;99.90;;;;;;5023262;28;19934;-74
2022/10/25 10:11:46;;;;;;;;;;;15.50;99.90;;;;;;5008398;28;19929;-76
2022/10/25 10:14:30;;;;;;;;;;;15.50;99.90;;;;;;4988084;28;20321;-76
2022/10/25 10:17:02;;;;;;;;;;;15.50;99.90;;;;;;4992044;28;20023;-75
2022/10/25 10:19:34;;;;;;;;;;;15.60;99.90;;;;;;4987633;28;19926;-75
2022/10/25 10:22:07;;;;;;;;;;;15.70;99.90;;;;;;5004843;28;19932;-72
2022/10/25 10:24:42;;;;;;;;;;;15.70;99.90;;;;;;5006742;28;19929;-73
2022/10/25 10:27:20;;;;;;;;;;;15.80;99.90;;;;;;5012413;28;19925;-74
2022/10/25 10:29:55;;;;;;;;;;;15.90;99.90;;;;;;4998675;28;19925;-76
2022/10/25 10:32:30;;;;;;;;;;;15.90;99.90;;;;;;5009812;28;19929;-74
2022/10/25 10:35:05;;;;;;;;;;;15.90;99.90;;;;;;5016506;28;19929;-73
2022/10/25 10:37:37;;;;;;;;;;;16.00;99.90;;;;;;4991795;28;19976;-76
2022/10/25 10:40:08;;;;;;;;;;;16.00;99.90;;;;;;5011236;28;20388;-75
2022/10/25 10:42:41;;;;;;;;;;;16.10;99.90;;;;;;5014082;28;19926;-74
2022/10/25 10:45:17;;;;;;;;;;;16.10;99.90;;;;;;4999990;28;20293;-76
2022/10/25 10:47:49;;;;;;;;;;;16.10;99.90;;;;;;5012750;28;19933;-75
2022/10/25 10:50:24;;;;;;;;;;;16.20;99.90;;;;;;5022329;28;19976;-75
2022/10/25 10:53:05;;;;;;;;;;;16.30;99.90;;;;;;5007204;28;19957;-76
2022/10/25 10:55:45;;;;;;;;;;;16.40;99.90;;;;;;5018697;28;19976;-74
2022/10/25 10:58:18;;;;;;;;;;;16.40;99.90;;;;;;5013585;28;20451;-74
2022/10/25 11:00:51;;;;;;;;;;;16.50;99.90;;;;;;5013214;28;19930;-73
2022/10/25 11:03:38;;;;;;;;;;;16.50;99.90;;;;;;5014172;28;19933;-76
2022/10/25 11:06:14;;;;;;;;;;;16.50;99.90;;;;;;5012856;28;19929;-74
2022/10/25 11:08:46;;;;;;;;;;;16.60;99.90;;;;;;5011029;28;19925;-75
2022/10/25 11:11:19;;;;;;;;;;;16.60;99.90;;;;;;5013717;28;20347;-74
2022/10/25 11:13:51;;;;;;;;;;;16.60;99.90;;;;;;5015795;28;19933;-73
2022/10/25 11:16:40;;;;;;;;;;;16.70;99.90;;;;;;5000097;28;19926;-75
2022/10/25 11:19:26;;;;;;;;;;;16.90;99.90;;;;;;4995576;28;19990;-74
2022/10/25 11:22:27;;;;;;;;;;;16.90;99.90;;;;;;5011297;28;19932;-74
2022/10/25 11:25:08;;;;;;;;;;;17.00;99.90;;;;;;4975047;28;19925;-75
2022/10/25 11:27:48;;;;;;;;;;;17.00;99.90;;;;;;5022075;28;19934;-74
2022/10/25 11:30:23;;;;;;;;;;;17.00;99.90;;;;;;4992019;28;19929;-74
2022/10/25 11:32:54;;;;;;;;;;;17.00;99.90;;;;;;5013627;28;19925;-73
2022/10/25 11:35:34;;;;;;;;;;;17.10;99.90;;;;;;4996109;28;19936;-75
2022/10/25 11:38:14;;;;;;;;;;;17.20;99.90;;;;;;5013013;28;19976;-75
2022/10/25 11:40:57;;;;;;;;;;;17.30;99.90;;;;;;5012687;28;20419;-75
2022/10/25 11:43:28;;;;;;;;;;;17.30;99.90;;;;;;5017182;28;19926;-75
2022/10/25 11:46:03;;;;;;;;;;;17.30;99.90;;;;;;5006428;28;20290;-74
2022/10/25 11:48:40;;;;;;;;;;;17.30;99.90;;;;;;5013050;28;19929;-75
2022/10/25 11:51:12;;;;;;;;;;;17.20;99.90;;;;;;5026495;28;20376;-75
2022/10/25 11:53:49;;;;;;;;;;;17.10;99.90;;;;;;5017885;28;19981;-74
2022/10/25 11:56:24;;;;;;;;;;;17.10;99.90;;;;;;5014702;28;19929;-73
2022/10/25 11:58:55;;;;;;;;;;;17.30;99.90;;;;;;5022272;28;19933;-73
2022/10/25 12:01:27;;;;;;;;;;;17.40;99.90;;;;;;5012931;28;19925;-73
2022/10/25 12:04:17;;;;;;;;;;;17.60;99.90;;;;;;5029350;28;20335;-72
2022/10/25 12:06:53;;;;;;;;;;;17.80;99.90;;;;;;5014019;28;20045;-73
2022/10/25 12:09:44;;;;;;;;;;;17.90;99.90;;;;;;4995844;28;19933;-74
2022/10/25 12:12:17;;;;;;;;;;;18.00;99.90;;;;;;5008868;28;20447;-74
2022/10/25 12:14:53;;;;;;;;;;;18.20;99.90;;;;;;5012639;28;20496;-73
2022/10/25 12:17:26;;;;;;;;;;;18.10;99.90;;;;;;4995251;28;19972;-73
2022/10/25 12:19:59;;;;;;;;;;;18.10;99.90;;;;;;5010007;28;20400;-73
2022/10/25 12:22:39;;;;;;;;;;;18.10;99.90;;;;;;5003954;28;20612;-72
2022/10/25 12:25:16;;;;;;;;;;;18.20;99.90;;;;;;5012067;28;19933;-73
2022/10/25 12:27:52;;;;;;;;;;;18.30;99.90;;;;;;5011539;28;19934;-73
2022/10/25 12:30:24;;;;;;;;;;;18.20;99.90;;;;;;4985274;28;19926;-74
2022/10/25 12:33:02;;;;;;;;;;;18.10;99.90;;;;;;5027285;28;19964;-74
2022/10/25 12:35:35;;;;;;;;;;;18.20;99.90;;;;;;4975352;28;19926;-75
2022/10/25 12:38:11;;;;;;;;;;;18.20;99.90;;;;;;5009501;28;19925;-72
2022/10/25 12:40:46;;;;;;;;;;;18.30;99.90;;;;;;5024147;28;20315;-73
2022/10/25 12:43:19;;;;;;;;;;;18.50;99.90;;;;;;5005080;28;19989;-73
2022/10/25 12:46:09;;;;;;;;;;;18.60;99.90;;;;;;5011228;28;19933;-73
2022/10/25 12:48:44;;;;;;;;;;;18.60;99.90;;;;;;5004166;28;19929;-74
2022/10/25 12:51:24;;;;;;;;;;;18.60;99.90;;;;;;5011164;28;19929;-73
2022/10/25 12:53:59;;;;;;;;;;;18.70;99.90;;;;;;5004066;28;19941;-75
2022/10/25 12:56:48;;;;;;;;;;;18.50;99.90;;;;;;5018140;28;19989;-72
2022/10/25 12:59:38;;;;;;;;;;;18.50;99.90;;;;;;4992506;28;19929;-75
2022/10/25 13:02:13;;;;;;;;;;;18.40;99.90;;;;;;5008212;28;19929;-74
2022/10/25 13:04:44;;;;;;;;;;;18.20;99.90;;;;;;5006903;28;19929;-74
2022/10/25 13:07:16;;;;;;;;;;;18.20;99.90;;;;;;5006420;28;19972;-72
2022/10/25 13:09:48;;;;;;;;;;;18.30;99.90;;;;;;5007841;28;19972;-72
2022/10/25 13:12:22;;;;;;;;;;;18.30;99.90;;;;;;4992235;28;19930;-74
2022/10/25 13:14:57;;;;;;;;;;;18.30;99.90;;;;;;4993955;28;20353;-74
2022/10/25 13:17:38;;;;;;;;;;;18.30;99.90;;;;;;4994351;28;20303;-75
2022/10/25 13:20:18;;;;;;;;;;;18.40;99.90;;;;;;5003412;28;20356;-72
2022/10/25 13:22:50;;;;;;;;;;;18.40;99.90;;;;;;5011546;28;19983;-74
2022/10/25 13:25:36;;;;;;;;;;;18.40;99.90;;;;;;4994052;28;19980;-74
2022/10/25 13:28:14;;;;;;;;;;;18.50;99.90;;;;;;5010269;28;19932;-73
2022/10/25 13:30:46;;;;;;;;;;;18.40;99.90;;;;;;5008141;28;19925;-74
2022/10/25 13:33:18;;;;;;;;;;;18.30;99.90;;;;;;5011479;28;20389;-74
2022/10/25 13:35:49;;;;;;;;;;;18.30;99.90;;;;;;4990568;28;19945;-74
2022/10/25 13:38:22;;;;;;;;;;;18.30;99.90;;;;;;5007073;28;19925;-75
2022/10/25 13:41:06;;;;;;;;;;;18.40;99.90;;;;;;5003556;28;19962;-75
2022/10/25 13:43:56;;;;;;;;;;;18.40;99.90;;;;;;4992787;28;20343;-74
2022/10/25 13:46:38;;;;;;;;;;;18.50;99.90;;;;;;4996158;28;20209;-74
2022/10/25 13:49:26;;;;;;;;;;;18.30;99.90;;;;;;5010525;28;19925;-73
2022/10/25 13:52:05;;;;;;;;;;;18.30;99.90;;;;;;5009768;28;19926;-75
2022/10/25 13:54:42;;;;;;;;;;;18.30;99.90;;;;;;4976750;28;19930;-74
2022/10/25 13:57:32;;;;;;;;;;;18.40;99.90;;;;;;4999969;28;19978;-74
2022/10/25 14:00:09;;;;;;;;;;;18.30;99.90;;;;;;4991931;28;19929;-73
2022/10/25 14:02:59;;;;;;;;;;;18.30;99.90;;;;;;5010898;28;19932;-74
2022/10/25 14:05:49;;;;;;;;;;;18.30;99.90;;;;;;4993246;28;20297;-74
2022/10/25 14:08:24;;;;;;;;;;;18.40;99.90;;;;;;5009377;28;20456;-72
2022/10/25 14:11:06;;;;;;;;;;;18.40;99.90;;;;;;5007805;28;19925;-73
2022/10/25 14:13:44;;;;;;;;;;;18.40;99.90;;;;;;4985288;28;20380;-73
2022/10/25 14:16:27;;;;;;;;;;;18.40;99.90;;;;;;5000020;28;19926;-74
2022/10/25 14:19:11;;;;;;;;;;;18.40;99.90;;;;;;5010125;28;19953;-72
2022/10/25 14:21:47;;;;;;;;;;;18.50;99.90;;;;;;5010886;28;19957;-74
2022/10/25 14:24:19;;;;;;;;;;;18.60;99.90;;;;;;5010381;28;20035;-73
2022/10/25 14:26:52;;;;;;;;;;;18.60;99.90;;;;;;5009266;28;19972;-74
2022/10/25 14:29:25;;;;;;;;;;;18.60;99.90;;;;;;5007828;28;19929;-74
2022/10/25 14:31:57;;;;;;;;;;;18.70;99.90;;;;;;5006328;28;19925;-74
2022/10/25 14:34:25;;;;;;;;;;;18.70;99.90;;;;;;5009435;28;20336;-76
2022/10/25 14:36:53;;;;;;;;;;;18.70;99.90;;;;;;4990500;28;19926;-74
2022/10/25 14:39:26;;;;;;;;;;;18.60;99.90;;;;;;4990120;28;19985;-75
2022/10/25 14:41:59;;;;;;;;;;;18.50;99.90;;;;;;5008390;28;20380;-75
2022/10/25 14:44:42;;;;;;;;;;;18.20;99.90;;;;;;4979246;28;20349;-72
2022/10/25 14:47:25;;;;;;;;;;;17.90;99.90;;;;;;5022215;28;19934;-74
2022/10/25 14:49:57;;;;;;;;;;;17.80;99.90;;;;;;5007112;28;20003;-74
2022/10/25 14:52:29;;;;;;;;;;;17.60;99.90;;;;;;5010128;28;19925;-74
2022/10/25 14:55:02;;;;;;;;;;;17.60;99.90;;;;;;4992025;28;20392;-75
2022/10/25 14:57:35;;;;;;;;;;;17.40;99.90;;;;;;4989464;28;20336;-75